ORN weather

Es Senia Airport
Oran, Oran Province, Algeria

Public forecast

Using degrees Celsius for public forecast. Weather courtesy of forecast.io.

Current aviation weather report (METAR) for Es Senia Airport

Retrieved 2019/11/11 20:30 UTC (0 seconds ago):

DAOO 112030Z 16006KT 9999 SCT033 SCT100 13/10 Q1014

Aviation forecast (TAF) for Es Senia Airport

Retrieved 2019/11/11 18:00 UTC (2 hours ago):

TAF DAOO 111700Z 1118/1218 26010KT 9999 SCT020 FEW026 SCT100 BECMG 1201/1204 VRB02KT 9999 BKN026 BECMG 1207/1210 29010KT 9999 FEW026 SCT233 BECMG 1212/1215 VRB02KT BECMG 1215/1218 24008KT 9999 SCT026 SCT030